sensor_id;sensor_type;location;lat;lon;timestamp;P1;durP1;ratioP1;P2;durP2;ratioP2
5042;SDS011;2540;50.928;6.856;2023-08-12T00:01:15;27.20;;;16.00;;
5042;SDS011;2540;50.928;6.856;2023-08-12T00:03:40;25.30;;;16.60;;
5042;SDS011;2540;50.928;6.856;2023-08-12T00:06:05;25.97;;;15.43;;
5042;SDS011;2540;50.928;6.856;2023-08-12T00:08:31;28.07;;;16.70;;
5042;SDS011;2540;50.928;6.856;2023-08-12T00:10:56;32.60;;;17.70;;
5042;SDS011;2540;50.928;6.856;2023-08-12T00:13:22;26.83;;;15.93;;
5042;SDS011;2540;50.928;6.856;2023-08-12T00:15:47;30.17;;;15.87;;
5042;SDS011;2540;50.928;6.856;2023-08-12T00:18:12;30.87;;;16.77;;
5042;SDS011;2540;50.928;6.856;2023-08-12T00:20:38;29.93;;;17.17;;
5042;SDS011;2540;50.928;6.856;2023-08-12T00:23:04;29.33;;;17.03;;
5042;SDS011;2540;50.928;6.856;2023-08-12T00:25:29;30.53;;;16.83;;
5042;SDS011;2540;50.928;6.856;2023-08-12T00:27:54;29.63;;;15.70;;
5042;SDS011;2540;50.928;6.856;2023-08-12T00:30:20;32.07;;;17.80;;
5042;SDS011;2540;50.928;6.856;2023-08-12T00:32:45;25.77;;;15.50;;
5042;SDS011;2540;50.928;6.856;2023-08-12T00:35:10;29.87;;;14.97;;
5042;SDS011;2540;50.928;6.856;2023-08-12T00:37:36;26.73;;;14.67;;
5042;SDS011;2540;50.928;6.856;2023-08-12T00:40:01;28.27;;;15.43;;
5042;SDS011;2540;50.928;6.856;2023-08-12T00:42:26;25.90;;;14.87;;
5042;SDS011;2540;50.928;6.856;2023-08-12T00:44:52;29.17;;;16.27;;
5042;SDS011;2540;50.928;6.856;2023-08-12T00:47:17;26.07;;;15.03;;
5042;SDS011;2540;50.928;6.856;2023-08-12T00:49:42;32.20;;;15.93;;
5042;SDS011;2540;50.928;6.856;2023-08-12T00:52:14;26.50;;;15.60;;
5042;SDS011;2540;50.928;6.856;2023-08-12T00:54:40;29.07;;;15.63;;
5042;SDS011;2540;50.928;6.856;2023-08-12T00:57:06;27.97;;;16.17;;
5042;SDS011;2540;50.928;6.856;2023-08-12T00:59:31;25.50;;;15.10;;
5042;SDS011;2540;50.928;6.856;2023-08-12T01:01:57;25.43;;;13.70;;
5042;SDS011;2540;50.928;6.856;2023-08-12T01:04:23;25.30;;;15.97;;
5042;SDS011;2540;50.928;6.856;2023-08-12T01:06:48;29.27;;;15.97;;
5042;SDS011;2540;50.928;6.856;2023-08-12T01:09:13;28.30;;;14.70;;
5042;SDS011;2540;50.928;6.856;2023-08-12T01:11:40;25.83;;;14.50;;
5042;SDS011;2540;50.928;6.856;2023-08-12T01:14:34;23.80;;;14.83;;
5042;SDS011;2540;50.928;6.856;2023-08-12T01:16:59;24.70;;;14.47;;
5042;SDS011;2540;50.928;6.856;2023-08-12T01:22:01;28.70;;;16.10;;
5042;SDS011;2540;50.928;6.856;2023-08-12T01:24:27;24.40;;;14.63;;
5042;SDS011;2540;50.928;6.856;2023-08-12T01:27:00;25.73;;;14.73;;
5042;SDS011;2540;50.928;6.856;2023-08-12T01:29:25;30.30;;;16.43;;
5042;SDS011;2540;50.928;6.856;2023-08-12T01:31:52;31.50;;;16.50;;
5042;SDS011;2540;50.928;6.856;2023-08-12T01:34:24;26.27;;;15.00;;
5042;SDS011;2540;50.928;6.856;2023-08-12T01:36:54;25.60;;;15.50;;
5042;SDS011;2540;50.928;6.856;2023-08-12T01:39:21;27.23;;;14.50;;
5042;SDS011;2540;50.928;6.856;2023-08-12T01:41:48;26.60;;;15.90;;
5042;SDS011;2540;50.928;6.856;2023-08-12T01:44:15;24.87;;;14.60;;
5042;SDS011;2540;50.928;6.856;2023-08-12T01:46:42;28.00;;;15.57;;
5042;SDS011;2540;50.928;6.856;2023-08-12T01:49:08;31.83;;;16.13;;
5042;SDS011;2540;50.928;6.856;2023-08-12T01:51:34;26.47;;;15.17;;
5042;SDS011;2540;50.928;6.856;2023-08-12T01:53:59;23.80;;;14.97;;
5042;SDS011;2540;50.928;6.856;2023-08-12T01:56:24;25.30;;;15.50;;
5042;SDS011;2540;50.928;6.856;2023-08-12T01:58:49;30.53;;;16.00;;
5042;SDS011;2540;50.928;6.856;2023-08-12T02:01:15;29.50;;;16.23;;
5042;SDS011;2540;50.928;6.856;2023-08-12T02:03:40;27.80;;;15.50;;
5042;SDS011;2540;50.928;6.856;2023-08-12T02:06:05;28.17;;;16.60;;
5042;SDS011;2540;50.928;6.856;2023-08-12T02:08:31;29.57;;;17.30;;
5042;SDS011;2540;50.928;6.856;2023-08-12T02:10:56;35.37;;;16.73;;
5042;SDS011;2540;50.928;6.856;2023-08-12T02:13:21;29.80;;;16.80;;
5042;SDS011;2540;50.928;6.856;2023-08-12T02:15:47;29.50;;;16.50;;
5042;SDS011;2540;50.928;6.856;2023-08-12T02:18:12;27.37;;;15.27;;
5042;SDS011;2540;50.928;6.856;2023-08-12T02:20:37;23.60;;;15.13;;
5042;SDS011;2540;50.928;6.856;2023-08-12T02:23:03;26.73;;;14.23;;
5042;SDS011;2540;50.928;6.856;2023-08-12T02:25:28;29.93;;;15.53;;
5042;SDS011;2540;50.928;6.856;2023-08-12T02:27:53;27.73;;;16.20;;
5042;SDS011;2540;50.928;6.856;2023-08-12T02:30:19;27.87;;;14.77;;
5042;SDS011;2540;50.928;6.856;2023-08-12T02:32:44;22.33;;;13.57;;
5042;SDS011;2540;50.928;6.856;2023-08-12T02:35:11;28.43;;;14.90;;
5042;SDS011;2540;50.928;6.856;2023-08-12T02:37:36;26.43;;;14.97;;
5042;SDS011;2540;50.928;6.856;2023-08-12T02:40:02;27.77;;;13.30;;
5042;SDS011;2540;50.928;6.856;2023-08-12T02:42:29;26.93;;;14.03;;
5042;SDS011;2540;50.928;6.856;2023-08-12T02:44:55;26.53;;;14.47;;
5042;SDS011;2540;50.928;6.856;2023-08-12T02:47:21;23.07;;;13.27;;
5042;SDS011;2540;50.928;6.856;2023-08-12T02:49:46;22.73;;;14.23;;
5042;SDS011;2540;50.928;6.856;2023-08-12T02:52:12;29.70;;;15.10;;
5042;SDS011;2540;50.928;6.856;2023-08-12T02:54:37;29.73;;;15.23;;
5042;SDS011;2540;50.928;6.856;2023-08-12T02:57:03;24.17;;;15.13;;
5042;SDS011;2540;50.928;6.856;2023-08-12T02:59:28;24.63;;;15.17;;
5042;SDS011;2540;50.928;6.856;2023-08-12T03:01:55;36.50;;;16.40;;
5042;SDS011;2540;50.928;6.856;2023-08-12T03:04:20;24.80;;;16.40;;
5042;SDS011;2540;50.928;6.856;2023-08-12T03:06:45;30.33;;;16.47;;
5042;SDS011;2540;50.928;6.856;2023-08-12T03:09:11;30.77;;;16.40;;
5042;SDS011;2540;50.928;6.856;2023-08-12T03:11:36;29.27;;;16.47;;
5042;SDS011;2540;50.928;6.856;2023-08-12T03:14:01;38.47;;;19.07;;
5042;SDS011;2540;50.928;6.856;2023-08-12T03:16:27;29.40;;;18.23;;
5042;SDS011;2540;50.928;6.856;2023-08-12T03:18:52;29.20;;;16.67;;
5042;SDS011;2540;50.928;6.856;2023-08-12T03:21:17;31.63;;;17.77;;
5042;SDS011;2540;50.928;6.856;2023-08-12T03:23:43;34.90;;;18.53;;
5042;SDS011;2540;50.928;6.856;2023-08-12T03:26:08;29.67;;;18.00;;
5042;SDS011;2540;50.928;6.856;2023-08-12T03:28:33;33.97;;;19.90;;
5042;SDS011;2540;50.928;6.856;2023-08-12T03:30:59;48.03;;;19.63;;
5042;SDS011;2540;50.928;6.856;2023-08-12T03:33:24;34.97;;;19.20;;
5042;SDS011;2540;50.928;6.856;2023-08-12T03:35:49;31.67;;;18.17;;
5042;SDS011;2540;50.928;6.856;2023-08-12T03:38:15;31.80;;;18.23;;
5042;SDS011;2540;50.928;6.856;2023-08-12T03:40:41;31.10;;;17.10;;
5042;SDS011;2540;50.928;6.856;2023-08-12T03:43:06;31.60;;;18.43;;
5042;SDS011;2540;50.928;6.856;2023-08-12T03:45:33;41.47;;;21.03;;
5042;SDS011;2540;50.928;6.856;2023-08-12T03:47:58;36.07;;;19.77;;
5042;SDS011;2540;50.928;6.856;2023-08-12T03:50:24;33.83;;;19.43;;
5042;SDS011;2540;50.928;6.856;2023-08-12T03:52:49;28.17;;;16.83;;
5042;SDS011;2540;50.928;6.856;2023-08-12T03:55:14;31.43;;;17.27;;
5042;SDS011;2540;50.928;6.856;2023-08-12T03:57:40;30.53;;;17.80;;
5042;SDS011;2540;50.928;6.856;2023-08-12T04:00:05;32.93;;;19.03;;
5042;SDS011;2540;50.928;6.856;2023-08-12T04:02:33;32.57;;;17.90;;
5042;SDS011;2540;50.928;6.856;2023-08-12T04:04:58;29.83;;;16.87;;
5042;SDS011;2540;50.928;6.856;2023-08-12T04:07:23;32.27;;;18.23;;
5042;SDS011;2540;50.928;6.856;2023-08-12T04:09:49;31.90;;;17.50;;
5042;SDS011;2540;50.928;6.856;2023-08-12T04:12:14;32.10;;;18.77;;
5042;SDS011;2540;50.928;6.856;2023-08-12T04:14:40;26.33;;;16.67;;
5042;SDS011;2540;50.928;6.856;2023-08-12T04:17:05;26.37;;;15.97;;
5042;SDS011;2540;50.928;6.856;2023-08-12T04:19:31;31.63;;;18.60;;
5042;SDS011;2540;50.928;6.856;2023-08-12T04:21:56;27.27;;;16.80;;
5042;SDS011;2540;50.928;6.856;2023-08-12T04:24:21;24.00;;;14.30;;
5042;SDS011;2540;50.928;6.856;2023-08-12T04:26:47;27.33;;;13.20;;
5042;SDS011;2540;50.928;6.856;2023-08-12T04:29:12;25.80;;;13.57;;
5042;SDS011;2540;50.928;6.856;2023-08-12T04:31:37;21.90;;;13.23;;
5042;SDS011;2540;50.928;6.856;2023-08-12T04:34:03;17.37;;;12.17;;
5042;SDS011;2540;50.928;6.856;2023-08-12T04:36:29;19.30;;;11.80;;
5042;SDS011;2540;50.928;6.856;2023-08-12T04:38:54;19.00;;;11.80;;
5042;SDS011;2540;50.928;6.856;2023-08-12T04:41:19;18.30;;;12.07;;
5042;SDS011;2540;50.928;6.856;2023-08-12T04:43:45;21.63;;;13.40;;
5042;SDS011;2540;50.928;6.856;2023-08-12T04:46:10;19.57;;;11.57;;
5042;SDS011;2540;50.928;6.856;2023-08-12T04:48:35;21.90;;;13.67;;
5042;SDS011;2540;50.928;6.856;2023-08-12T04:51:01;19.50;;;12.80;;
5042;SDS011;2540;50.928;6.856;2023-08-12T04:53:27;22.70;;;11.90;;
5042;SDS011;2540;50.928;6.856;2023-08-12T04:55:54;19.57;;;11.87;;
5042;SDS011;2540;50.928;6.856;2023-08-12T04:58:20;25.10;;;11.10;;
5042;SDS011;2540;50.928;6.856;2023-08-12T05:00:45;24.33;;;12.33;;
5042;SDS011;2540;50.928;6.856;2023-08-12T05:03:11;15.80;;;10.57;;
5042;SDS011;2540;50.928;6.856;2023-08-12T05:05:36;20.67;;;12.23;;
5042;SDS011;2540;50.928;6.856;2023-08-12T05:08:02;21.50;;;10.90;;
5042;SDS011;2540;50.928;6.856;2023-08-12T05:10:27;17.20;;;10.57;;
5042;SDS011;2540;50.928;6.856;2023-08-12T05:12:52;17.87;;;10.87;;
5042;SDS011;2540;50.928;6.856;2023-08-12T05:15:19;15.20;;;10.30;;
5042;SDS011;2540;50.928;6.856;2023-08-12T05:17:44;15.70;;;9.47;;
5042;SDS011;2540;50.928;6.856;2023-08-12T05:20:10;12.70;;;9.03;;
5042;SDS011;2540;50.928;6.856;2023-08-12T05:22:35;17.67;;;9.70;;
5042;SDS011;2540;50.928;6.856;2023-08-12T05:25:01;16.60;;;9.70;;
5042;SDS011;2540;50.928;6.856;2023-08-12T05:27:26;14.50;;;9.30;;
5042;SDS011;2540;50.928;6.856;2023-08-12T05:29:51;12.87;;;8.30;;
5042;SDS011;2540;50.928;6.856;2023-08-12T05:32:17;15.90;;;8.77;;
5042;SDS011;2540;50.928;6.856;2023-08-12T05:34:42;16.10;;;9.70;;
5042;SDS011;2540;50.928;6.856;2023-08-12T05:37:07;14.43;;;8.90;;
5042;SDS011;2540;50.928;6.856;2023-08-12T05:39:34;15.33;;;9.90;;
5042;SDS011;2540;50.928;6.856;2023-08-12T05:42:01;13.07;;;8.60;;
5042;SDS011;2540;50.928;6.856;2023-08-12T05:44:26;24.63;;;10.30;;
5042;SDS011;2540;50.928;6.856;2023-08-12T05:46:52;23.30;;;10.30;;
5042;SDS011;2540;50.928;6.856;2023-08-12T05:49:17;21.43;;;13.00;;
5042;SDS011;2540;50.928;6.856;2023-08-12T05:51:43;23.60;;;13.20;;
5042;SDS011;2540;50.928;6.856;2023-08-12T05:54:08;25.87;;;13.60;;
5042;SDS011;2540;50.928;6.856;2023-08-12T05:56:33;25.63;;;14.70;;
5042;SDS011;2540;50.928;6.856;2023-08-12T05:58:59;22.23;;;14.40;;
5042;SDS011;2540;50.928;6.856;2023-08-12T06:01:24;22.93;;;13.70;;
5042;SDS011;2540;50.928;6.856;2023-08-12T06:03:49;32.43;;;15.00;;
5042;SDS011;2540;50.928;6.856;2023-08-12T06:06:15;24.37;;;15.27;;
5042;SDS011;2540;50.928;6.856;2023-08-12T06:08:40;29.07;;;16.37;;
5042;SDS011;2540;50.928;6.856;2023-08-12T06:11:05;24.60;;;15.37;;
5042;SDS011;2540;50.928;6.856;2023-08-12T06:13:31;25.00;;;16.20;;
5042;SDS011;2540;50.928;6.856;2023-08-12T06:15:56;26.30;;;15.57;;
5042;SDS011;2540;50.928;6.856;2023-08-12T06:18:22;22.97;;;15.50;;
5042;SDS011;2540;50.928;6.856;2023-08-12T06:20:47;22.17;;;14.13;;
5042;SDS011;2540;50.928;6.856;2023-08-12T06:23:12;27.13;;;17.17;;
5042;SDS011;2540;50.928;6.856;2023-08-12T06:25:38;18.67;;;13.63;;
5042;SDS011;2540;50.928;6.856;2023-08-12T06:28:03;21.30;;;13.27;;
5042;SDS011;2540;50.928;6.856;2023-08-12T06:30:33;17.30;;;11.33;;
5042;SDS011;2540;50.928;6.856;2023-08-12T06:32:58;23.37;;;10.10;;
5042;SDS011;2540;50.928;6.856;2023-08-12T06:35:24;15.23;;;9.80;;
5042;SDS011;2540;50.928;6.856;2023-08-12T06:37:49;18.60;;;9.27;;
5042;SDS011;2540;50.928;6.856;2023-08-12T06:40:14;10.90;;;7.97;;
5042;SDS011;2540;50.928;6.856;2023-08-12T06:42:40;11.60;;;7.60;;
5042;SDS011;2540;50.928;6.856;2023-08-12T06:45:05;13.63;;;7.00;;
5042;SDS011;2540;50.928;6.856;2023-08-12T06:47:31;10.43;;;6.77;;
5042;SDS011;2540;50.928;6.856;2023-08-12T06:49:56;9.53;;;6.70;;
5042;SDS011;2540;50.928;6.856;2023-08-12T06:52:22;10.40;;;6.60;;
5042;SDS011;2540;50.928;6.856;2023-08-12T06:54:47;8.77;;;5.63;;
5042;SDS011;2540;50.928;6.856;2023-08-12T06:57:13;10.90;;;5.07;;
5042;SDS011;2540;50.928;6.856;2023-08-12T06:59:38;7.00;;;4.90;;
5042;SDS011;2540;50.928;6.856;2023-08-12T07:02:03;7.40;;;5.03;;
5042;SDS011;2540;50.928;6.856;2023-08-12T07:04:29;8.47;;;4.70;;
5042;SDS011;2540;50.928;6.856;2023-08-12T07:06:55;8.83;;;4.97;;
5042;SDS011;2540;50.928;6.856;2023-08-12T07:09:20;5.30;;;4.10;;
5042;SDS011;2540;50.928;6.856;2023-08-12T07:11:45;5.13;;;4.00;;
5042;SDS011;2540;50.928;6.856;2023-08-12T07:14:11;7.60;;;4.37;;
5042;SDS011;2540;50.928;6.856;2023-08-12T07:16:36;5.83;;;4.33;;
5042;SDS011;2540;50.928;6.856;2023-08-12T07:19:01;7.27;;;4.10;;
5042;SDS011;2540;50.928;6.856;2023-08-12T07:21:27;8.30;;;4.00;;
5042;SDS011;2540;50.928;6.856;2023-08-12T07:23:52;5.80;;;4.03;;
5042;SDS011;2540;50.928;6.856;2023-08-12T07:26:17;9.80;;;4.40;;
5042;SDS011;2540;50.928;6.856;2023-08-12T07:28:43;10.00;;;4.10;;
5042;SDS011;2540;50.928;6.856;2023-08-12T07:31:08;6.63;;;4.20;;
5042;SDS011;2540;50.928;6.856;2023-08-12T07:33:33;4.17;;;3.27;;
5042;SDS011;2540;50.928;6.856;2023-08-12T07:35:59;6.03;;;3.20;;
5042;SDS011;2540;50.928;6.856;2023-08-12T07:38:24;3.27;;;2.73;;
5042;SDS011;2540;50.928;6.856;2023-08-12T07:40:50;4.57;;;2.87;;
5042;SDS011;2540;50.928;6.856;2023-08-12T07:43:15;8.83;;;3.90;;
5042;SDS011;2540;50.928;6.856;2023-08-12T07:45:41;4.90;;;3.37;;
5042;SDS011;2540;50.928;6.856;2023-08-12T07:48:06;9.70;;;3.97;;
5042;SDS011;2540;50.928;6.856;2023-08-12T07:50:31;7.20;;;3.53;;
5042;SDS011;2540;50.928;6.856;2023-08-12T07:52:57;6.57;;;2.90;;
5042;SDS011;2540;50.928;6.856;2023-08-12T07:55:22;4.20;;;2.90;;
5042;SDS011;2540;50.928;6.856;2023-08-12T07:57:47;4.97;;;2.90;;
5042;SDS011;2540;50.928;6.856;2023-08-12T08:00:13;3.97;;;2.63;;
5042;SDS011;2540;50.928;6.856;2023-08-12T08:02:38;4.20;;;3.00;;
5042;SDS011;2540;50.928;6.856;2023-08-12T08:05:04;4.20;;;2.67;;
5042;SDS011;2540;50.928;6.856;2023-08-12T08:07:30;4.17;;;3.00;;
5042;SDS011;2540;50.928;6.856;2023-08-12T08:09:55;4.47;;;3.10;;
5042;SDS011;2540;50.928;6.856;2023-08-12T08:12:20;4.00;;;2.30;;
5042;SDS011;2540;50.928;6.856;2023-08-12T08:14:46;4.20;;;2.50;;
5042;SDS011;2540;50.928;6.856;2023-08-12T08:17:11;5.67;;;2.50;;
5042;SDS011;2540;50.928;6.856;2023-08-12T08:19:36;3.90;;;2.33;;
5042;SDS011;2540;50.928;6.856;2023-08-12T08:22:02;2.93;;;2.30;;
5042;SDS011;2540;50.928;6.856;2023-08-12T08:24:28;6.23;;;2.87;;
5042;SDS011;2540;50.928;6.856;2023-08-12T08:26:53;5.73;;;2.87;;
5042;SDS011;2540;50.928;6.856;2023-08-12T08:29:18;5.20;;;3.10;;
5042;SDS011;2540;50.928;6.856;2023-08-12T08:31:44;7.97;;;2.93;;
5042;SDS011;2540;50.928;6.856;2023-08-12T08:34:09;3.60;;;2.67;;
5042;SDS011;2540;50.928;6.856;2023-08-12T08:36:35;6.13;;;3.33;;
5042;SDS011;2540;50.928;6.856;2023-08-12T08:39:00;5.40;;;2.50;;
5042;SDS011;2540;50.928;6.856;2023-08-12T08:41:25;3.87;;;2.90;;
5042;SDS011;2540;50.928;6.856;2023-08-12T08:43:52;3.70;;;2.43;;
5042;SDS011;2540;50.928;6.856;2023-08-12T08:46:19;2.60;;;2.30;;
5042;SDS011;2540;50.928;6.856;2023-08-12T08:48:45;4.30;;;2.40;;
5042;SDS011;2540;50.928;6.856;2023-08-12T08:51:12;4.70;;;2.37;;
5042;SDS011;2540;50.928;6.856;2023-08-12T08:53:37;6.97;;;4.83;;
5042;SDS011;2540;50.928;6.856;2023-08-12T08:56:04;5.27;;;3.00;;
5042;SDS011;2540;50.928;6.856;2023-08-12T08:58:30;5.90;;;2.30;;
5042;SDS011;2540;50.928;6.856;2023-08-12T09:00:56;4.17;;;2.20;;
5042;SDS011;2540;50.928;6.856;2023-08-12T09:03:22;3.23;;;2.30;;
5042;SDS011;2540;50.928;6.856;2023-08-12T09:05:47;3.20;;;2.20;;
5042;SDS011;2540;50.928;6.856;2023-08-12T09:08:12;4.23;;;2.43;;
5042;SDS011;2540;50.928;6.856;2023-08-12T09:10:38;3.33;;;2.10;;
5042;SDS011;2540;50.928;6.856;2023-08-12T09:13:07;4.50;;;1.73;;
5042;SDS011;2540;50.928;6.856;2023-08-12T09:15:34;2.60;;;1.63;;
5042;SDS011;2540;50.928;6.856;2023-08-12T09:17:59;2.87;;;1.80;;
5042;SDS011;2540;50.928;6.856;2023-08-12T09:20:24;2.00;;;1.77;;
5042;SDS011;2540;50.928;6.856;2023-08-12T09:22:57;6.20;;;2.00;;
5042;SDS011;2540;50.928;6.856;2023-08-12T09:25:22;4.20;;;1.87;;
5042;SDS011;2540;50.928;6.856;2023-08-12T09:27:48;2.50;;;1.80;;
5042;SDS011;2540;50.928;6.856;2023-08-12T09:30:14;4.03;;;1.90;;
5042;SDS011;2540;50.928;6.856;2023-08-12T09:32:39;3.80;;;1.70;;
5042;SDS011;2540;50.928;6.856;2023-08-12T09:35:05;4.43;;;1.97;;
5042;SDS011;2540;50.928;6.856;2023-08-12T09:37:31;3.87;;;1.93;;
5042;SDS011;2540;50.928;6.856;2023-08-12T09:39:56;4.00;;;2.40;;
5042;SDS011;2540;50.928;6.856;2023-08-12T09:42:23;2.33;;;1.60;;
5042;SDS011;2540;50.928;6.856;2023-08-12T09:44:48;2.43;;;1.70;;
5042;SDS011;2540;50.928;6.856;2023-08-12T09:47:13;2.07;;;1.77;;
5042;SDS011;2540;50.928;6.856;2023-08-12T09:49:39;3.20;;;1.80;;
5042;SDS011;2540;50.928;6.856;2023-08-12T09:52:05;2.30;;;1.67;;
5042;SDS011;2540;50.928;6.856;2023-08-12T09:54:32;2.97;;;1.87;;
5042;SDS011;2540;50.928;6.856;2023-08-12T09:56:58;3.90;;;1.90;;
5042;SDS011;2540;50.928;6.856;2023-08-12T09:59:24;2.67;;;1.57;;
5042;SDS011;2540;50.928;6.856;2023-08-12T10:01:52;4.00;;;1.70;;
5042;SDS011;2540;50.928;6.856;2023-08-12T10:04:18;1.60;;;1.40;;
5042;SDS011;2540;50.928;6.856;2023-08-12T10:06:47;2.63;;;1.60;;
5042;SDS011;2540;50.928;6.856;2023-08-12T10:09:13;5.20;;;1.57;;
5042;SDS011;2540;50.928;6.856;2023-08-12T10:11:40;1.20;;;1.10;;
5042;SDS011;2540;50.928;6.856;2023-08-12T10:14:06;7.97;;;1.57;;
5042;SDS011;2540;50.928;6.856;2023-08-12T10:16:33;2.33;;;1.60;;
5042;SDS011;2540;50.928;6.856;2023-08-12T10:18:59;1.90;;;1.47;;
5042;SDS011;2540;50.928;6.856;2023-08-12T10:21:25;1.57;;;1.17;;
5042;SDS011;2540;50.928;6.856;2023-08-12T10:23:51;1.77;;;1.47;;
5042;SDS011;2540;50.928;6.856;2023-08-12T10:26:18;1.43;;;1.27;;
5042;SDS011;2540;50.928;6.856;2023-08-12T10:28:44;1.70;;;1.40;;
5042;SDS011;2540;50.928;6.856;2023-08-12T10:31:10;2.30;;;1.40;;
5042;SDS011;2540;50.928;6.856;2023-08-12T10:33:40;1.40;;;1.20;;
5042;SDS011;2540;50.928;6.856;2023-08-12T10:36:06;1.47;;;1.20;;
5042;SDS011;2540;50.928;6.856;2023-08-12T10:38:32;1.37;;;1.20;;
5042;SDS011;2540;50.928;6.856;2023-08-12T10:41:20;2.77;;;1.30;;
5042;SDS011;2540;50.928;6.856;2023-08-12T10:44:00;2.20;;;1.23;;
5042;SDS011;2540;50.928;6.856;2023-08-12T10:46:36;2.87;;;1.57;;
5042;SDS011;2540;50.928;6.856;2023-08-12T10:49:06;2.83;;;1.83;;
5042;SDS011;2540;50.928;6.856;2023-08-12T10:54:15;3.80;;;1.50;;
5042;SDS011;2540;50.928;6.856;2023-08-12T11:02:30;5.00;;;2.17;;
5042;SDS011;2540;50.928;6.856;2023-08-12T11:10:16;3.23;;;1.37;;
5042;SDS011;2540;50.928;6.856;2023-08-12T11:12:42;1.43;;;1.30;;
5042;SDS011;2540;50.928;6.856;2023-08-12T11:15:13;3.70;;;1.70;;
5042;SDS011;2540;50.928;6.856;2023-08-12T11:17:39;1.90;;;1.50;;
5042;SDS011;2540;50.928;6.856;2023-08-12T11:20:06;1.93;;;1.50;;
5042;SDS011;2540;50.928;6.856;2023-08-12T11:22:36;3.20;;;1.63;;
5042;SDS011;2540;50.928;6.856;2023-08-12T11:25:07;2.93;;;1.40;;
5042;SDS011;2540;50.928;6.856;2023-08-12T11:27:38;2.50;;;1.90;;
5042;SDS011;2540;50.928;6.856;2023-08-12T11:30:05;2.53;;;1.53;;
5042;SDS011;2540;50.928;6.856;2023-08-12T11:32:31;2.13;;;1.63;;
5042;SDS011;2540;50.928;6.856;2023-08-12T11:34:56;2.37;;;1.40;;
5042;SDS011;2540;50.928;6.856;2023-08-12T11:37:21;1.57;;;1.27;;
5042;SDS011;2540;50.928;6.856;2023-08-12T11:39:47;2.10;;;1.67;;
5042;SDS011;2540;50.928;6.856;2023-08-12T11:42:12;2.40;;;1.47;;
5042;SDS011;2540;50.928;6.856;2023-08-12T11:44:41;2.07;;;1.50;;
5042;SDS011;2540;50.928;6.856;2023-08-12T11:47:07;1.90;;;1.50;;
5042;SDS011;2540;50.928;6.856;2023-08-12T11:49:32;1.67;;;1.47;;
5042;SDS011;2540;50.928;6.856;2023-08-12T11:51:57;3.40;;;1.50;;
5042;SDS011;2540;50.928;6.856;2023-08-12T11:54:23;2.60;;;2.00;;
5042;SDS011;2540;50.928;6.856;2023-08-12T11:56:49;1.87;;;1.43;;
5042;SDS011;2540;50.928;6.856;2023-08-12T11:59:14;1.50;;;1.37;;
5042;SDS011;2540;50.928;6.856;2023-08-12T12:01:40;1.77;;;1.30;;
5042;SDS011;2540;50.928;6.856;2023-08-12T12:04:05;1.70;;;1.23;;
5042;SDS011;2540;50.928;6.856;2023-08-12T12:06:31;1.93;;;1.60;;
5042;SDS011;2540;50.928;6.856;2023-08-12T12:09:02;1.40;;;1.13;;
5042;SDS011;2540;50.928;6.856;2023-08-12T12:11:30;2.40;;;1.30;;
5042;SDS011;2540;50.928;6.856;2023-08-12T12:13:56;1.83;;;1.20;;
5042;SDS011;2540;50.928;6.856;2023-08-12T12:16:21;1.97;;;1.60;;
5042;SDS011;2540;50.928;6.856;2023-08-12T12:18:47;2.87;;;1.20;;
5042;SDS011;2540;50.928;6.856;2023-08-12T12:21:19;1.63;;;1.10;;
5042;SDS011;2540;50.928;6.856;2023-08-12T12:23:45;1.37;;;1.20;;
5042;SDS011;2540;50.928;6.856;2023-08-12T12:26:10;1.80;;;1.60;;
5042;SDS011;2540;50.928;6.856;2023-08-12T12:28:36;1.40;;;1.30;;
5042;SDS011;2540;50.928;6.856;2023-08-12T12:31:01;2.67;;;2.30;;
5042;SDS011;2540;50.928;6.856;2023-08-12T12:33:26;1.27;;;1.17;;
5042;SDS011;2540;50.928;6.856;2023-08-12T12:35:52;1.80;;;1.50;;
5042;SDS011;2540;50.928;6.856;2023-08-12T12:38:17;7.50;;;1.40;;
5042;SDS011;2540;50.928;6.856;2023-08-12T12:40:43;4.70;;;1.73;;
5042;SDS011;2540;50.928;6.856;2023-08-12T12:43:08;1.10;;;1.00;;
5042;SDS011;2540;50.928;6.856;2023-08-12T12:45:33;1.27;;;1.07;;
5042;SDS011;2540;50.928;6.856;2023-08-12T12:47:58;5.30;;;1.50;;
5042;SDS011;2540;50.928;6.856;2023-08-12T12:50:24;3.17;;;1.80;;
5042;SDS011;2540;50.928;6.856;2023-08-12T12:52:49;1.40;;;1.10;;
5042;SDS011;2540;50.928;6.856;2023-08-12T12:55:14;4.20;;;1.80;;
5042;SDS011;2540;50.928;6.856;2023-08-12T12:57:40;2.30;;;1.73;;
5042;SDS011;2540;50.928;6.856;2023-08-12T13:00:05;3.13;;;1.40;;
5042;SDS011;2540;50.928;6.856;2023-08-12T13:02:34;2.80;;;1.70;;
5042;SDS011;2540;50.928;6.856;2023-08-12T13:04:59;3.23;;;1.53;;
5042;SDS011;2540;50.928;6.856;2023-08-12T13:07:24;2.40;;;1.60;;
5042;SDS011;2540;50.928;6.856;2023-08-12T13:09:50;6.43;;;1.60;;
5042;SDS011;2540;50.928;6.856;2023-08-12T13:12:15;0.90;;;0.80;;
5042;SDS011;2540;50.928;6.856;2023-08-12T13:14:40;0.70;;;0.60;;
5042;SDS011;2540;50.928;6.856;2023-08-12T13:17:06;1.20;;;0.90;;
5042;SDS011;2540;50.928;6.856;2023-08-12T13:19:31;1.13;;;0.70;;
5042;SDS011;2540;50.928;6.856;2023-08-12T13:21:56;1.43;;;0.77;;
5042;SDS011;2540;50.928;6.856;2023-08-12T13:24:21;1.00;;;0.90;;
5042;SDS011;2540;50.928;6.856;2023-08-12T13:26:47;1.00;;;0.80;;
5042;SDS011;2540;50.928;6.856;2023-08-12T13:29:12;2.43;;;1.00;;
5042;SDS011;2540;50.928;6.856;2023-08-12T13:31:37;0.90;;;0.80;;
5042;SDS011;2540;50.928;6.856;2023-08-12T13:34:04;1.03;;;0.90;;
5042;SDS011;2540;50.928;6.856;2023-08-12T13:36:29;1.70;;;1.00;;
5042;SDS011;2540;50.928;6.856;2023-08-12T13:38:55;1.10;;;0.87;;
5042;SDS011;2540;50.928;6.856;2023-08-12T13:41:20;1.23;;;0.70;;
5042;SDS011;2540;50.928;6.856;2023-08-12T13:43:46;1.47;;;1.00;;
5042;SDS011;2540;50.928;6.856;2023-08-12T13:46:12;2.37;;;0.83;;
5042;SDS011;2540;50.928;6.856;2023-08-12T13:48:37;1.20;;;1.00;;
5042;SDS011;2540;50.928;6.856;2023-08-12T13:51:03;1.07;;;0.90;;
5042;SDS011;2540;50.928;6.856;2023-08-12T13:53:28;0.93;;;0.80;;
5042;SDS011;2540;50.928;6.856;2023-08-12T13:55:54;1.53;;;1.10;;
5042;SDS011;2540;50.928;6.856;2023-08-12T13:58:19;0.70;;;0.70;;
5042;SDS011;2540;50.928;6.856;2023-08-12T14:00:44;1.00;;;0.80;;
5042;SDS011;2540;50.928;6.856;2023-08-12T14:03:10;1.10;;;0.87;;
5042;SDS011;2540;50.928;6.856;2023-08-12T14:05:35;1.53;;;0.63;;
5042;SDS011;2540;50.928;6.856;2023-08-12T14:08:00;2.60;;;0.90;;
5042;SDS011;2540;50.928;6.856;2023-08-12T14:10:26;0.70;;;0.60;;
5042;SDS011;2540;50.928;6.856;2023-08-12T14:12:51;2.20;;;1.00;;
5042;SDS011;2540;50.928;6.856;2023-08-12T14:15:16;1.03;;;0.70;;
5042;SDS011;2540;50.928;6.856;2023-08-12T14:17:42;2.20;;;0.70;;
5042;SDS011;2540;50.928;6.856;2023-08-12T14:20:07;0.97;;;0.70;;
5042;SDS011;2540;50.928;6.856;2023-08-12T14:22:33;0.70;;;0.60;;
5042;SDS011;2540;50.928;6.856;2023-08-12T14:24:59;1.77;;;0.70;;
5042;SDS011;2540;50.928;6.856;2023-08-12T14:27:25;1.67;;;0.80;;
5042;SDS011;2540;50.928;6.856;2023-08-12T14:29:50;2.30;;;0.67;;
5042;SDS011;2540;50.928;6.856;2023-08-12T14:32:15;0.87;;;0.80;;
5042;SDS011;2540;50.928;6.856;2023-08-12T14:34:43;1.33;;;0.73;;
5042;SDS011;2540;50.928;6.856;2023-08-12T14:37:11;0.90;;;0.70;;
5042;SDS011;2540;50.928;6.856;2023-08-12T14:39:45;3.07;;;1.10;;
5042;SDS011;2540;50.928;6.856;2023-08-12T14:42:14;1.80;;;0.80;;
5042;SDS011;2540;50.928;6.856;2023-08-12T14:44:39;1.47;;;0.90;;
5042;SDS011;2540;50.928;6.856;2023-08-12T14:47:05;0.90;;;0.80;;
5042;SDS011;2540;50.928;6.856;2023-08-12T14:49:31;6.23;;;0.80;;
5042;SDS011;2540;50.928;6.856;2023-08-12T14:51:57;0.80;;;0.80;;
5042;SDS011;2540;50.928;6.856;2023-08-12T14:54:22;0.90;;;0.73;;
5042;SDS011;2540;50.928;6.856;2023-08-12T14:56:47;1.63;;;0.70;;
5042;SDS011;2540;50.928;6.856;2023-08-12T14:59:13;1.90;;;0.80;;
5042;SDS011;2540;50.928;6.856;2023-08-12T15:01:38;0.80;;;0.67;;
5042;SDS011;2540;50.928;6.856;2023-08-12T15:04:03;1.53;;;1.10;;
5042;SDS011;2540;50.928;6.856;2023-08-12T15:06:30;1.33;;;0.87;;
5042;SDS011;2540;50.928;6.856;2023-08-12T15:08:55;0.93;;;0.70;;
5042;SDS011;2540;50.928;6.856;2023-08-12T15:11:20;1.93;;;0.90;;